sensor_id;sensor_type;location;lat;lon;timestamp;pressure;altitude;pressure_sealevel;temperature;humidity
31538;BME280;18147;51.952;6.146;2023-02-19T00:01:09;101630.44;;;10.63;100.00
31538;BME280;18147;51.952;6.146;2023-02-19T00:03:36;101637.69;;;10.61;100.00
31538;BME280;18147;51.952;6.146;2023-02-19T00:06:03;101635.59;;;10.49;100.00
31538;BME280;18147;51.952;6.146;2023-02-19T00:08:30;101636.41;;;10.51;100.00
31538;BME280;18147;51.952;6.146;2023-02-19T00:11:00;101640.88;;;10.50;100.00
31538;BME280;18147;51.952;6.146;2023-02-19T00:13:26;101648.25;;;10.45;100.00
31538;BME280;18147;51.952;6.146;2023-02-19T00:15:51;101642.69;;;10.50;100.00
31538;BME280;18147;51.952;6.146;2023-02-19T00:18:17;101648.25;;;10.45;100.00
31538;BME280;18147;51.952;6.146;2023-02-19T00:20:42;101641.44;;;10.57;100.00
31538;BME280;18147;51.952;6.146;2023-02-19T00:23:08;101637.75;;;10.59;100.00
31538;BME280;18147;51.952;6.146;2023-02-19T00:25:36;101638.84;;;10.55;100.00
31538;BME280;18147;51.952;6.146;2023-02-19T00:28:04;101640.81;;;10.52;100.00
31538;BME280;18147;51.952;6.146;2023-02-19T00:30:29;101639.31;;;10.46;100.00
31538;BME280;18147;51.952;6.146;2023-02-19T00:32:55;101643.59;;;10.49;100.00
31538;BME280;18147;51.952;6.146;2023-02-19T00:35:21;101641.44;;;10.40;100.00
31538;BME280;18147;51.952;6.146;2023-02-19T00:37:47;101635.56;;;10.50;100.00
31538;BME280;18147;51.952;6.146;2023-02-19T00:40:12;101640.88;;;10.50;100.00
31538;BME280;18147;51.952;6.146;2023-02-19T00:42:38;101638.69;;;10.58;100.00
31538;BME280;18147;51.952;6.146;2023-02-19T00:45:03;101633.97;;;10.46;100.00
31538;BME280;18147;51.952;6.146;2023-02-19T00:47:30;101634.97;;;10.44;100.00
31538;BME280;18147;51.952;6.146;2023-02-19T00:49:55;101637.19;;;10.35;100.00
31538;BME280;18147;51.952;6.146;2023-02-19T00:52:21;101637.81;;;10.41;100.00
31538;BME280;18147;51.952;6.146;2023-02-19T00:54:46;101635.69;;;10.30;100.00
31538;BME280;18147;51.952;6.146;2023-02-19T00:57:12;101636.88;;;10.42;100.00
31538;BME280;18147;51.952;6.146;2023-02-19T00:59:37;101634.88;;;10.28;100.00
31538;BME280;18147;51.952;6.146;2023-02-19T01:02:03;101636.16;;;10.38;100.00
31538;BME280;18147;51.952;6.146;2023-02-19T01:04:28;101645.22;;;10.34;100.00
31538;BME280;18147;51.952;6.146;2023-02-19T01:06:54;101650.13;;;10.43;100.00
31538;BME280;18147;51.952;6.146;2023-02-19T01:09:19;101647.63;;;10.40;100.00
31538;BME280;18147;51.952;6.146;2023-02-19T01:11:45;101647.00;;;10.35;100.00
31538;BME280;18147;51.952;6.146;2023-02-19T01:14:10;101649.28;;;10.24;100.00
31538;BME280;18147;51.952;6.146;2023-02-19T01:16:36;101645.72;;;10.25;100.00
31538;BME280;18147;51.952;6.146;2023-02-19T01:19:02;101653.41;;;10.31;100.00
31538;BME280;18147;51.952;6.146;2023-02-19T01:21:28;101648.84;;;10.33;100.00
31538;BME280;18147;51.952;6.146;2023-02-19T01:23:55;101647.44;;;10.26;100.00
31538;BME280;18147;51.952;6.146;2023-02-19T01:26:25;101646.75;;;10.21;100.00
31538;BME280;18147;51.952;6.146;2023-02-19T01:28:51;101648.94;;;10.31;100.00
31538;BME280;18147;51.952;6.146;2023-02-19T01:31:22;101670.63;;;10.24;100.00
31538;BME280;18147;51.952;6.146;2023-02-19T01:33:50;101661.94;;;10.19;100.00
31538;BME280;18147;51.952;6.146;2023-02-19T01:36:16;101663.84;;;10.35;100.00
31538;BME280;18147;51.952;6.146;2023-02-19T01:38:43;101664.38;;;10.25;100.00
31538;BME280;18147;51.952;6.146;2023-02-19T01:41:11;101667.03;;;10.25;100.00
31538;BME280;18147;51.952;6.146;2023-02-19T01:44:03;101665.56;;;10.18;100.00
31538;BME280;18147;51.952;6.146;2023-02-19T01:46:36;101670.66;;;10.22;100.00
31538;BME280;18147;51.952;6.146;2023-02-19T01:51:40;101659.38;;;10.36;100.00
31538;BME280;18147;51.952;6.146;2023-02-19T01:54:09;101663.44;;;10.26;100.00
31538;BME280;18147;51.952;6.146;2023-02-19T01:56:38;101662.84;;;10.19;100.00
31538;BME280;18147;51.952;6.146;2023-02-19T01:59:07;101660.59;;;10.29;100.00
31538;BME280;18147;51.952;6.146;2023-02-19T02:01:35;101657.28;;;10.24;100.00
31538;BME280;18147;51.952;6.146;2023-02-19T02:04:02;101648.38;;;10.25;100.00
31538;BME280;18147;51.952;6.146;2023-02-19T02:06:35;101655.44;;;10.26;100.00
31538;BME280;18147;51.952;6.146;2023-02-19T02:09:02;101656.69;;;10.36;100.00
31538;BME280;18147;51.952;6.146;2023-02-19T02:11:50;101657.34;;;10.22;100.00
31538;BME280;18147;51.952;6.146;2023-02-19T02:14:18;101666.19;;;10.24;100.00
31538;BME280;18147;51.952;6.146;2023-02-19T02:22:11;101665.41;;;10.21;100.00
31538;BME280;18147;51.952;6.146;2023-02-19T02:35:59;101673.28;;;10.24;100.00
31538;BME280;18147;51.952;6.146;2023-02-19T02:38:30;101661.25;;;10.15;100.00
31538;BME280;18147;51.952;6.146;2023-02-19T02:40:57;101669.31;;;10.13;100.00
31538;BME280;18147;51.952;6.146;2023-02-19T02:43:23;101669.38;;;10.12;100.00
31538;BME280;18147;51.952;6.146;2023-02-19T02:45:50;101664.69;;;10.17;100.00
31538;BME280;18147;51.952;6.146;2023-02-19T02:48:43;101668.53;;;10.11;100.00
31538;BME280;18147;51.952;6.146;2023-02-19T02:51:23;101675.66;;;10.11;100.00
31538;BME280;18147;51.952;6.146;2023-02-19T02:54:25;101674.16;;;10.05;100.00
31538;BME280;18147;51.952;6.146;2023-02-19T02:57:13;101681.34;;;10.03;100.00
31538;BME280;18147;51.952;6.146;2023-02-19T02:59:44;101686.31;;;10.11;100.00
31538;BME280;18147;51.952;6.146;2023-02-19T03:02:17;101687.56;;;9.85;100.00
31538;BME280;18147;51.952;6.146;2023-02-19T03:08:11;101684.72;;;10.07;100.00
31538;BME280;18147;51.952;6.146;2023-02-19T03:13:09;101697.97;;;10.08;100.00
31538;BME280;18147;51.952;6.146;2023-02-19T03:16:04;101691.88;;;10.06;100.00
31538;BME280;18147;51.952;6.146;2023-02-19T03:18:53;101694.53;;;10.06;100.00
31538;BME280;18147;51.952;6.146;2023-02-19T03:21:40;101702.09;;;10.16;100.00
31538;BME280;18147;51.952;6.146;2023-02-19T03:24:09;101705.91;;;10.10;100.00
31538;BME280;18147;51.952;6.146;2023-02-19T03:26:56;101705.63;;;10.16;100.00
31538;BME280;18147;51.952;6.146;2023-02-19T03:29:29;101707.41;;;10.16;100.00
31538;BME280;18147;51.952;6.146;2023-02-19T03:32:12;101708.59;;;10.10;100.00
31538;BME280;18147;51.952;6.146;2023-02-19T03:34:45;101709.44;;;10.10;100.00
31538;BME280;18147;51.952;6.146;2023-02-19T03:37:17;101717.66;;;10.06;100.00
31538;BME280;18147;51.952;6.146;2023-02-19T03:39:49;101726.63;;;10.03;100.00
31538;BME280;18147;51.952;6.146;2023-02-19T03:48:21;101713.97;;;10.08;100.00
31538;BME280;18147;51.952;6.146;2023-02-19T03:53:37;101729.81;;;9.93;100.00
31538;BME280;18147;51.952;6.146;2023-02-19T03:56:13;101729.59;;;9.97;100.00
31538;BME280;18147;51.952;6.146;2023-02-19T03:58:55;101735.56;;;10.02;100.00
31538;BME280;18147;51.952;6.146;2023-02-19T04:04:08;101739.19;;;10.01;100.00
31538;BME280;18147;51.952;6.146;2023-02-19T04:06:38;101742.28;;;10.11;100.00
31538;BME280;18147;51.952;6.146;2023-02-19T04:09:10;101741.72;;;10.04;100.00
31538;BME280;18147;51.952;6.146;2023-02-19T04:11:37;101744.13;;;10.09;100.00
31538;BME280;18147;51.952;6.146;2023-02-19T04:14:20;101751.47;;;10.04;100.00
31538;BME280;18147;51.952;6.146;2023-02-19T04:16:51;101755.81;;;10.06;100.00
31538;BME280;18147;51.952;6.146;2023-02-19T04:19:20;101758.69;;;10.02;100.00
31538;BME280;18147;51.952;6.146;2023-02-19T04:21:48;101762.22;;;10.02;100.00
31538;BME280;18147;51.952;6.146;2023-02-19T04:24:27;101765.09;;;9.98;100.00
31538;BME280;18147;51.952;6.146;2023-02-19T04:26:54;101768.41;;;10.03;100.00
31538;BME280;18147;51.952;6.146;2023-02-19T04:29:20;101768.63;;;9.98;100.00
31538;BME280;18147;51.952;6.146;2023-02-19T04:31:45;101768.38;;;10.04;100.00
31538;BME280;18147;51.952;6.146;2023-02-19T04:34:11;101762.50;;;9.96;100.00
31538;BME280;18147;51.952;6.146;2023-02-19T04:36:36;101769.00;;;9.91;100.00
31538;BME280;18147;51.952;6.146;2023-02-19T04:39:03;101768.25;;;9.87;100.00
31538;BME280;18147;51.952;6.146;2023-02-19T04:41:28;101761.16;;;10.06;100.00
31538;BME280;18147;51.952;6.146;2023-02-19T04:43:54;101765.03;;;10.18;100.00
31538;BME280;18147;51.952;6.146;2023-02-19T04:46:19;101769.06;;;10.08;100.00
31538;BME280;18147;51.952;6.146;2023-02-19T04:48:45;101776.56;;;10.19;100.00
31538;BME280;18147;51.952;6.146;2023-02-19T04:51:10;101777.13;;;10.06;100.00
31538;BME280;18147;51.952;6.146;2023-02-19T04:53:42;101789.16;;;9.96;100.00
31538;BME280;18147;51.952;6.146;2023-02-19T04:56:12;101799.03;;;9.94;100.00
31538;BME280;18147;51.952;6.146;2023-02-19T04:58:39;101804.13;;;9.99;100.00
31538;BME280;18147;51.952;6.146;2023-02-19T05:01:05;101802.09;;;9.85;100.00
31538;BME280;18147;51.952;6.146;2023-02-19T05:03:31;101802.47;;;9.96;100.00
31538;BME280;18147;51.952;6.146;2023-02-19T05:06:02;101811.53;;;9.92;100.00
31538;BME280;18147;51.952;6.146;2023-02-19T05:08:28;101811.63;;;9.91;100.00
31538;BME280;18147;51.952;6.146;2023-02-19T05:10:57;101824.66;;;9.97;100.00
31538;BME280;18147;51.952;6.146;2023-02-19T05:13:23;101819.31;;;9.97;100.00
31538;BME280;18147;51.952;6.146;2023-02-19T05:15:56;101831.91;;;9.93;100.00
31538;BME280;18147;51.952;6.146;2023-02-19T05:18:22;101832.06;;;9.90;100.00
31538;BME280;18147;51.952;6.146;2023-02-19T05:20:49;101835.44;;;9.94;100.00
31538;BME280;18147;51.952;6.146;2023-02-19T05:23:15;101836.25;;;9.96;100.00
31538;BME280;18147;51.952;6.146;2023-02-19T05:25:40;101842.44;;;9.96;100.00
31538;BME280;18147;51.952;6.146;2023-02-19T05:28:06;101831.53;;;9.82;100.00
31538;BME280;18147;51.952;6.146;2023-02-19T05:30:50;101833.91;;;9.88;100.00
31538;BME280;18147;51.952;6.146;2023-02-19T05:33:17;101841.50;;;9.97;100.00
31538;BME280;18147;51.952;6.146;2023-02-19T05:35:46;101837.59;;;9.85;100.00
31538;BME280;18147;51.952;6.146;2023-02-19T05:38:12;101846.06;;;9.95;100.00
31538;BME280;18147;51.952;6.146;2023-02-19T05:40:38;101849.50;;;9.97;100.00
31538;BME280;18147;51.952;6.146;2023-02-19T05:43:04;101857.03;;;9.88;100.00
31538;BME280;18147;51.952;6.146;2023-02-19T05:45:31;101852.44;;;9.91;100.00
31538;BME280;18147;51.952;6.146;2023-02-19T05:47:57;101848.63;;;9.97;100.00
31538;BME280;18147;51.952;6.146;2023-02-19T05:50:23;101845.59;;;9.85;100.00
31538;BME280;18147;51.952;6.146;2023-02-19T05:52:48;101854.03;;;9.95;100.00
31538;BME280;18147;51.952;6.146;2023-02-19T05:55:14;101845.44;;;9.89;100.00
31538;BME280;18147;51.952;6.146;2023-02-19T05:57:40;101856.91;;;9.91;100.00
31538;BME280;18147;51.952;6.146;2023-02-19T06:00:08;101854.63;;;10.02;100.00
31538;BME280;18147;51.952;6.146;2023-02-19T06:02:38;101861.09;;;9.96;100.00
31538;BME280;18147;51.952;6.146;2023-02-19T06:05:04;101865.75;;;9.91;100.00
31538;BME280;18147;51.952;6.146;2023-02-19T06:07:30;101862.25;;;9.91;100.00
31538;BME280;18147;51.952;6.146;2023-02-19T06:09:57;101873.47;;;9.97;100.00
31538;BME280;18147;51.952;6.146;2023-02-19T06:12:23;101879.28;;;9.86;100.00
31538;BME280;18147;51.952;6.146;2023-02-19T06:14:48;101882.53;;;9.93;100.00
31538;BME280;18147;51.952;6.146;2023-02-19T06:17:14;101886.50;;;9.84;100.00
31538;BME280;18147;51.952;6.146;2023-02-19T06:19:41;101883.00;;;9.82;100.00
31538;BME280;18147;51.952;6.146;2023-02-19T06:22:07;101889.81;;;9.90;100.00
31538;BME280;18147;51.952;6.146;2023-02-19T06:24:33;101885.63;;;9.84;100.00
31538;BME280;18147;51.952;6.146;2023-02-19T06:26:58;101888.22;;;9.85;100.00
31538;BME280;18147;51.952;6.146;2023-02-19T06:29:24;101895.47;;;9.82;100.00
31538;BME280;18147;51.952;6.146;2023-02-19T06:31:49;101903.06;;;9.71;100.00
31538;BME280;18147;51.952;6.146;2023-02-19T06:34:15;101914.94;;;9.84;100.00
31538;BME280;18147;51.952;6.146;2023-02-19T06:36:41;101915.06;;;9.81;100.00
31538;BME280;18147;51.952;6.146;2023-02-19T06:39:06;101922.09;;;9.82;100.00
31538;BME280;18147;51.952;6.146;2023-02-19T06:41:32;101922.66;;;9.90;100.00
31538;BME280;18147;51.952;6.146;2023-02-19T06:43:58;101925.44;;;9.87;100.00
31538;BME280;18147;51.952;6.146;2023-02-19T06:46:23;101935.75;;;9.74;100.00
31538;BME280;18147;51.952;6.146;2023-02-19T06:48:49;101932.09;;;9.77;100.00
31538;BME280;18147;51.952;6.146;2023-02-19T06:51:17;101934.69;;;9.78;100.00
31538;BME280;18147;51.952;6.146;2023-02-19T06:53:45;101935.03;;;9.71;100.00
31538;BME280;18147;51.952;6.146;2023-02-19T06:58:50;101930.38;;;9.96;100.00
31538;BME280;18147;51.952;6.146;2023-02-19T07:01:16;101941.16;;;9.93;100.00
31538;BME280;18147;51.952;6.146;2023-02-19T07:03:42;101940.16;;;9.96;100.00
31538;BME280;18147;51.952;6.146;2023-02-19T07:06:07;101944.81;;;9.91;100.00
31538;BME280;18147;51.952;6.146;2023-02-19T07:08:33;101953.09;;;9.84;100.00
31538;BME280;18147;51.952;6.146;2023-02-19T07:10:58;101958.22;;;9.89;100.00
31538;BME280;18147;51.952;6.146;2023-02-19T07:13:25;101965.84;;;9.76;100.00
31538;BME280;18147;51.952;6.146;2023-02-19T07:15:56;101964.81;;;9.80;100.00
31538;BME280;18147;51.952;6.146;2023-02-19T07:18:22;101969.75;;;9.90;100.00
31538;BME280;18147;51.952;6.146;2023-02-19T07:20:47;101979.06;;;9.79;100.00
31538;BME280;18147;51.952;6.146;2023-02-19T07:23:13;101974.72;;;9.97;100.00
31538;BME280;18147;51.952;6.146;2023-02-19T07:25:39;101982.47;;;10.03;100.00
31538;BME280;18147;51.952;6.146;2023-02-19T07:28:05;101989.19;;;9.92;100.00
31538;BME280;18147;51.952;6.146;2023-02-19T07:30:30;101990.19;;;9.89;100.00
31538;BME280;18147;51.952;6.146;2023-02-19T07:32:55;101984.66;;;9.94;100.00
31538;BME280;18147;51.952;6.146;2023-02-19T07:35:21;101988.66;;;10.04;100.00
31538;BME280;18147;51.952;6.146;2023-02-19T07:37:46;101996.91;;;9.98;100.00
31538;BME280;18147;51.952;6.146;2023-02-19T07:40:12;101998.63;;;9.99;100.00
31538;BME280;18147;51.952;6.146;2023-02-19T07:42:37;102008.88;;;9.88;100.00
31538;BME280;18147;51.952;6.146;2023-02-19T07:45:04;102016.38;;;10.00;100.00
31538;BME280;18147;51.952;6.146;2023-02-19T07:47:30;102013.44;;;9.85;100.00
31538;BME280;18147;51.952;6.146;2023-02-19T07:49:55;102024.81;;;9.67;100.00
31538;BME280;18147;51.952;6.146;2023-02-19T07:52:21;102030.34;;;9.63;100.00
31538;BME280;18147;51.952;6.146;2023-02-19T07:54:47;102029.16;;;9.92;100.00
31538;BME280;18147;51.952;6.146;2023-02-19T07:57:12;102030.94;;;9.91;100.00
31538;BME280;18147;51.952;6.146;2023-02-19T07:59:38;102035.69;;;9.84;100.00
31538;BME280;18147;51.952;6.146;2023-02-19T08:02:11;102029.81;;;9.97;100.00
31538;BME280;18147;51.952;6.146;2023-02-19T08:05:12;102032.00;;;9.87;100.00
31538;BME280;18147;51.952;6.146;2023-02-19T08:07:38;102033.91;;;9.83;100.00
31538;BME280;18147;51.952;6.146;2023-02-19T08:10:03;102034.78;;;10.06;100.00
31538;BME280;18147;51.952;6.146;2023-02-19T08:12:58;102034.03;;;10.02;100.00
31538;BME280;18147;51.952;6.146;2023-02-19T08:15:48;102031.72;;;10.15;100.00
31538;BME280;18147;51.952;6.146;2023-02-19T08:18:15;102030.63;;;9.99;100.00
31538;BME280;18147;51.952;6.146;2023-02-19T08:20:43;102041.38;;;10.18;100.00
31538;BME280;18147;51.952;6.146;2023-02-19T08:23:09;102044.91;;;10.18;100.00
31538;BME280;18147;51.952;6.146;2023-02-19T08:25:36;102048.59;;;10.16;100.00
31538;BME280;18147;51.952;6.146;2023-02-19T08:28:01;102054.59;;;9.99;100.00
31538;BME280;18147;51.952;6.146;2023-02-19T08:30:28;102053.56;;;10.25;100.00
31538;BME280;18147;51.952;6.146;2023-02-19T08:32:54;102064.44;;;10.19;100.00
31538;BME280;18147;51.952;6.146;2023-02-19T08:35:20;102055.28;;;10.26;100.00
31538;BME280;18147;51.952;6.146;2023-02-19T08:37:46;102057.88;;;10.48;100.00
31538;BME280;18147;51.952;6.146;2023-02-19T08:40:11;102064.75;;;10.53;100.00
31538;BME280;18147;51.952;6.146;2023-02-19T08:42:37;102061.97;;;10.56;100.00
31538;BME280;18147;51.952;6.146;2023-02-19T08:45:03;102071.09;;;10.71;100.00
31538;BME280;18147;51.952;6.146;2023-02-19T08:47:29;102074.28;;;10.59;100.00
31538;BME280;18147;51.952;6.146;2023-02-19T08:49:54;102070.81;;;10.77;100.00
31538;BME280;18147;51.952;6.146;2023-02-19T08:52:19;102075.94;;;10.82;100.00
31538;BME280;18147;51.952;6.146;2023-02-19T08:54:45;102088.81;;;10.72;100.00
31538;BME280;18147;51.952;6.146;2023-02-19T08:57:10;102090.56;;;10.73;100.00
31538;BME280;18147;51.952;6.146;2023-02-19T08:59:36;102096.56;;;10.78;100.00
31538;BME280;18147;51.952;6.146;2023-02-19T09:02:01;102098.91;;;10.66;100.00
31538;BME280;18147;51.952;6.146;2023-02-19T09:04:28;102090.97;;;10.84;100.00
31538;BME280;18147;51.952;6.146;2023-02-19T09:06:54;102079.69;;;10.78;100.00
31538;BME280;18147;51.952;6.146;2023-02-19T09:09:19;102077.69;;;10.83;100.00
31538;BME280;18147;51.952;6.146;2023-02-19T09:11:45;102079.63;;;10.79;100.00
31538;BME280;18147;51.952;6.146;2023-02-19T09:14:11;102079.69;;;10.78;100.00
31538;BME280;18147;51.952;6.146;2023-02-19T09:16:36;102081.09;;;10.66;100.00
31538;BME280;18147;51.952;6.146;2023-02-19T09:19:02;102085.19;;;10.94;100.00
31538;BME280;18147;51.952;6.146;2023-02-19T09:21:28;102096.56;;;10.78;100.00
31538;BME280;18147;51.952;6.146;2023-02-19T09:23:53;102100.28;;;10.74;100.00
31538;BME280;18147;51.952;6.146;2023-02-19T09:26:19;102104.09;;;10.69;100.00
31538;BME280;18147;51.952;6.146;2023-02-19T09:28:45;102111.97;;;10.51;100.00
31538;BME280;18147;51.952;6.146;2023-02-19T09:31:12;102113.84;;;10.49;100.00
31538;BME280;18147;51.952;6.146;2023-02-19T09:33:42;102124.38;;;10.52;100.00
31538;BME280;18147;51.952;6.146;2023-02-19T09:36:08;102138.09;;;10.63;100.00
31538;BME280;18147;51.952;6.146;2023-02-19T09:38:34;102133.22;;;10.53;100.00
31538;BME280;18147;51.952;6.146;2023-02-19T09:41:06;102131.44;;;10.53;100.00
31538;BME280;18147;51.952;6.146;2023-02-19T09:43:32;102136.53;;;10.37;100.00
31538;BME280;18147;51.952;6.146;2023-02-19T09:46:34;102146.59;;;10.31;100.00
31538;BME280;18147;51.952;6.146;2023-02-19T09:49:06;102170.47;;;10.34;100.00
31538;BME280;18147;51.952;6.146;2023-02-19T09:51:36;102183.59;;;10.38;100.00
31538;BME280;18147;51.952;6.146;2023-02-19T09:54:08;102190.69;;;10.40;100.00
31538;BME280;18147;51.952;6.146;2023-02-19T09:56:37;102191.09;;;10.29;100.00
31538;BME280;18147;51.952;6.146;2023-02-19T09:59:03;102193.97;;;10.46;100.00
31538;BME280;18147;51.952;6.146;2023-02-19T10:01:33;102187.94;;;10.83;100.00
31538;BME280;18147;51.952;6.146;2023-02-19T10:04:02;102186.97;;;11.06;100.00
31538;BME280;18147;51.952;6.146;2023-02-19T10:06:28;102203.00;;;10.64;100.00
31538;BME280;18147;51.952;6.146;2023-02-19T10:09:15;102212.41;;;10.73;100.00
31538;BME280;18147;51.952;6.146;2023-02-19T10:11:42;102216.13;;;11.11;100.00
31538;BME280;18147;51.952;6.146;2023-02-19T10:14:14;102207.44;;;11.26;100.00
31538;BME280;18147;51.952;6.146;2023-02-19T10:16:44;102207.09;;;11.34;100.00
31538;BME280;18147;51.952;6.146;2023-02-19T10:19:11;102205.22;;;11.75;100.00
31538;BME280;18147;51.952;6.146;2023-02-19T10:21:38;102203.50;;;12.31;100.00
31538;BME280;18147;51.952;6.146;2023-02-19T10:24:05;102199.97;;;11.53;100.00
31538;BME280;18147;51.952;6.146;2023-02-19T10:26:31;102214.50;;;11.48;100.00
31538;BME280;18147;51.952;6.146;2023-02-19T10:29:00;102219.13;;;11.24;100.00
31538;BME280;18147;51.952;6.146;2023-02-19T10:31:25;102229.78;;;11.24;100.00
31538;BME280;18147;51.952;6.146;2023-02-19T10:33:53;102237.28;;;10.95;100.00
31538;BME280;18147;51.952;6.146;2023-02-19T10:36:32;102244.19;;;10.99;100.00
31538;BME280;18147;51.952;6.146;2023-02-19T10:39:02;102260.25;;;10.77;100.00
31538;BME280;18147;51.952;6.146;2023-02-19T10:41:30;102255.97;;;10.73;100.00
31538;BME280;18147;51.952;6.146;2023-02-19T10:44:05;102262.69;;;10.40;100.00
31538;BME280;18147;51.952;6.146;2023-02-19T10:46:36;102266.53;;;10.54;100.00
31538;BME280;18147;51.952;6.146;2023-02-19T10:49:36;102286.69;;;10.40;100.00
31538;BME280;18147;51.952;6.146;2023-02-19T10:52:20;102285.97;;;9.64;100.00
31538;BME280;18147;51.952;6.146;2023-02-19T10:54:54;102276.50;;;9.55;100.00
31538;BME280;18147;51.952;6.146;2023-02-19T11:02:48;102312.22;;;9.23;100.00
31538;BME280;18147;51.952;6.146;2023-02-19T11:05:18;102313.84;;;9.29;100.00
31538;BME280;18147;51.952;6.146;2023-02-19T11:07:53;102316.94;;;9.42;100.00
31538;BME280;18147;51.952;6.146;2023-02-19T11:10:26;102289.91;;;9.52;100.00
31538;BME280;18147;51.952;6.146;2023-02-19T11:12:56;102279.50;;;9.46;100.00
31538;BME280;18147;51.952;6.146;2023-02-19T11:15:30;102286.91;;;9.12;100.00
31538;BME280;18147;51.952;6.146;2023-02-19T11:20:25;102293.59;;;9.23;100.00
31538;BME280;18147;51.952;6.146;2023-02-19T11:22:50;102290.66;;;9.06;100.00
31538;BME280;18147;51.952;6.146;2023-02-19T11:25:21;102285.28;;;9.32;100.00
31538;BME280;18147;51.952;6.146;2023-02-19T11:28:19;102293.38;;;9.04;100.00
31538;BME280;18147;51.952;6.146;2023-02-19T11:30:46;102303.25;;;9.01;100.00
31538;BME280;18147;51.952;6.146;2023-02-19T11:35:42;102292.34;;;9.33;100.00
31538;BME280;18147;51.952;6.146;2023-02-19T11:38:09;102301.09;;;9.12;100.00
31538;BME280;18147;51.952;6.146;2023-02-19T11:48:57;102290.31;;;10.13;100.00
31538;BME280;18147;51.952;6.146;2023-02-19T11:51:34;102300.16;;;9.88;100.00
31538;BME280;18147;51.952;6.146;2023-02-19T11:56:54;102302.94;;;10.08;100.00
31538;BME280;18147;51.952;6.146;2023-02-19T11:59:36;102307.19;;;9.91;100.00
31538;BME280;18147;51.952;6.146;2023-02-19T12:02:26;102308.06;;;9.91;100.00
31538;BME280;18147;51.952;6.146;2023-02-19T12:05:18;102303.00;;;10.07;100.00
31538;BME280;18147;51.952;6.146;2023-02-19T12:10:57;102291.03;;;10.42;100.00
31538;BME280;18147;51.952;6.146;2023-02-19T12:16:46;102310.47;;;9.97;100.00
31538;BME280;18147;51.952;6.146;2023-02-19T12:19:23;102329.03;;;9.25;100.00
31538;BME280;18147;51.952;6.146;2023-02-19T12:22:17;102318.75;;;9.15;100.00
31538;BME280;18147;51.952;6.146;2023-02-19T12:30:47;102318.44;;;9.24;100.00
31538;BME280;18147;51.952;6.146;2023-02-19T12:33:41;102316.28;;;9.08;100.00
31538;BME280;18147;51.952;6.146;2023-02-19T12:42:20;102335.25;;;8.98;100.00
31538;BME280;18147;51.952;6.146;2023-02-19T12:44:55;102321.81;;;9.02;100.00
31538;BME280;18147;51.952;6.146;2023-02-19T12:47:28;102324.53;;;9.01;100.00
31538;BME280;18147;51.952;6.146;2023-02-19T12:50:04;102330.94;;;8.95;100.00
31538;BME280;18147;51.952;6.146;2023-02-19T12:52:36;102334.97;;;9.07;100.00
31538;BME280;18147;51.952;6.146;2023-02-19T12:55:25;102341.84;;;8.86;100.00
31538;BME280;18147;51.952;6.146;2023-02-19T12:57:53;102343.94;;;9.04;100.00
31538;BME280;18147;51.952;6.146;2023-02-19T13:03:12;102343.94;;;9.04;100.00
31538;BME280;18147;51.952;6.146;2023-02-19T13:08:51;102338.28;;;8.87;100.00
31538;BME280;18147;51.952;6.146;2023-02-19T13:11:23;102354.34;;;8.84;100.00
31538;BME280;18147;51.952;6.146;2023-02-19T13:16:50;102355.16;;;9.14;100.00
31538;BME280;18147;51.952;6.146;2023-02-19T13:19:17;102351.88;;;9.57;100.00
31538;BME280;18147;51.952;6.146;2023-02-19T13:21:46;102355.75;;;9.22;100.00
31538;BME280;18147;51.952;6.146;2023-02-19T13:24:38;102359.91;;;9.31;100.00
31538;BME280;18147;51.952;6.146;2023-02-19T13:30:22;102377.81;;;8.99;100.00
31538;BME280;18147;51.952;6.146;2023-02-19T13:33:24;102388.03;;;9.12;100.00
31538;BME280;18147;51.952;6.146;2023-02-19T13:38:31;102390.66;;;8.85;100.00
31538;BME280;18147;51.952;6.146;2023-02-19T13:40:58;102397.22;;;8.73;100.00
31538;BME280;18147;51.952;6.146;2023-02-19T13:43:29;102394.66;;;8.70;100.00
31538;BME280;18147;51.952;6.146;2023-02-19T13:46:06;102407.78;;;8.76;100.00
31538;BME280;18147;51.952;6.146;2023-02-19T13:48:35;102411.25;;;8.78;100.00
31538;BME280;18147;51.952;6.146;2023-02-19T14:04:42;102422.22;;;8.68;100.00
31538;BME280;18147;51.952;6.146;2023-02-19T14:14:54;102440.06;;;8.31;100.00
31538;BME280;18147;51.952;6.146;2023-02-19T14:17:40;102439.94;;;8.05;100.00
31538;BME280;18147;51.952;6.146;2023-02-19T14:28:20;102453.00;;;8.13;100.00
31538;BME280;18147;51.952;6.146;2023-02-19T14:33:15;102455.53;;;7.85;100.00
31538;BME280;18147;51.952;6.146;2023-02-19T14:35:44;102458.13;;;7.86;100.00
31538;BME280;18147;51.952;6.146;2023-02-19T14:38:21;102452.53;;;7.98;100.00
31538;BME280;18147;51.952;6.146;2023-02-19T14:40:48;102442.38;;;8.13;100.00
31538;BME280;18147;51.952;6.146;2023-02-19T14:43:16;102442.19;;;7.86;100.00
31538;BME280;18147;51.952;6.146;2023-02-19T14:45:47;102435.41;;;8.09;100.00
31538;BME280;18147;51.952;6.146;2023-02-19T14:48:20;102414.44;;;7.98;100.00
31538;BME280;18147;51.952;6.146;2023-02-19T14:50:50;102418.13;;;7.92;100.00
31538;BME280;18147;51.952;6.146;2023-02-19T14:53:21;102414.28;;;8.04;100.00
31538;BME280;18147;51.952;6.146;2023-02-19T14:55:48;102412.28;;;7.79;100.00
31538;BME280;18147;51.952;6.146;2023-02-19T14:58:19;102411.19;;;7.88;100.00
31538;BME280;18147;51.952;6.146;2023-02-19T15:00:46;102407.44;;;7.95;100.00
31538;BME280;18147;51.952;6.146;2023-02-19T15:03:32;102409.28;;;7.93;100.00
31538;BME280;18147;51.952;6.146;2023-02-19T15:06:06;102401.69;;;8.11;100.00